Time;durP1;ratioP1;P1;durP2;ratioP2;P2;SDS_P1;SDS_P2;PMS_P1;PMS_P2;Temp;Humidity;BMP_temperature;BMP_pressure;BME280_temperature;BME280_humidity;BME280_pressure;Samples;Min_cycle;Max_cycle;Signal;HPM_P1;HPM_P2
2023/05/22 00:01:18;;;;;;;16.85;9.25;;;;;;;;;;5086932;27;20048;-72
2023/05/22 00:03:43;;;;;;;22.67;9.07;;;;;;;;;;5101955;28;20049;-72
2023/05/22 00:06:10;;;;;;;21.98;9.40;;;;;;;;;;5096054;28;20039;-72
2023/05/22 00:08:36;;;;;;;18.25;8.73;;;;;;;;;;5103408;28;20114;-72
2023/05/22 00:11:02;;;;;;;20.70;9.23;;;;;;;;;;5103781;27;20123;-72
2023/05/22 00:13:27;;;;;;;25.35;9.80;;;;;;;;;;5101412;27;20107;-72
2023/05/22 00:15:53;;;;;;;17.15;9.77;;;;;;;;;;5100503;28;20032;-72
2023/05/22 00:18:18;;;;;;;17.92;9.10;;;;;;;;;;5098787;27;20588;-72
2023/05/22 00:20:45;;;;;;;20.90;9.85;;;;;;;;;;5087566;27;20039;-72
2023/05/22 00:23:11;;;;;;;25.95;10.10;;;;;;;;;;5107995;27;20719;-72
2023/05/22 00:25:37;;;;;;;18.52;9.38;;;;;;;;;;5110570;27;20028;-72
2023/05/22 00:28:03;;;;;;;22.05;10.32;;;;;;;;;;5117411;27;20020;-72
2023/05/22 00:30:29;;;;;;;27.88;11.40;;;;;;;;;;5111661;28;20158;-72
2023/05/22 00:32:55;;;;;;;22.02;10.07;;;;;;;;;;5093952;28;20031;-72
2023/05/22 00:35:21;;;;;;;19.38;9.65;;;;;;;;;;5104448;27;20036;-72
2023/05/22 00:37:46;;;;;;;21.23;9.95;;;;;;;;;;5099931;28;20122;-72
2023/05/22 00:40:12;;;;;;;26.13;10.13;;;;;;;;;;5102475;28;20106;-72
2023/05/22 00:42:38;;;;;;;23.58;10.50;;;;;;;;;;5101728;28;20043;-72
2023/05/22 00:45:05;;;;;;;21.73;10.43;;;;;;;;;;5107555;27;20055;-72
2023/05/22 00:47:31;;;;;;;26.35;11.38;;;;;;;;;;5096260;27;20024;-72
2023/05/22 00:49:57;;;;;;;23.25;11.45;;;;;;;;;;5103573;27;20042;-72
2023/05/22 00:52:23;;;;;;;25.25;11.27;;;;;;;;;;5103272;27;20031;-72
2023/05/22 00:54:50;;;;;;;23.20;12.45;;;;;;;;;;5099336;27;20020;-72
2023/05/22 00:57:16;;;;;;;30.05;11.95;;;;;;;;;;5110216;27;20164;-72
2023/05/22 00:59:42;;;;;;;23.65;11.27;;;;;;;;;;5087921;28;20032;-72
2023/05/22 01:02:08;;;;;;;23.45;11.43;;;;;;;;;;5095142;27;20137;-72
2023/05/22 01:04:34;;;;;;;24.02;12.13;;;;;;;;;;5112170;27;20040;-72
2023/05/22 01:07:01;;;;;;;23.05;12.05;;;;;;;;;;5108094;28;20047;-72
2023/05/22 01:09:28;;;;;;;26.38;12.38;;;;;;;;;;5101066;27;20035;-72
2023/05/22 01:12:31;;;;;;;25.67;11.98;;;;;;;;;;5102068;27;20039;-72
2023/05/22 01:15:12;;;;;;;30.77;12.15;;;;;;;;;;5078749;28;20066;-72
2023/05/22 01:17:51;;;;;;;28.13;12.32;;;;;;;;;;5095291;27;20035;-72
2023/05/22 01:20:31;;;;;;;29.25;13.27;;;;;;;;;;5101441;28;20047;-72
2023/05/22 01:23:38;;;;;;;24.38;12.60;;;;;;;;;;5095508;27;20410;-72
2023/05/22 01:26:29;;;;;;;28.75;13.80;;;;;;;;;;5050166;28;20513;-72
2023/05/22 01:29:06;;;;;;;28.70;13.57;;;;;;;;;;5087405;28;20102;-72
2023/05/22 01:31:38;;;;;;;29.38;14.10;;;;;;;;;;5095993;27;20039;-72
2023/05/22 01:34:04;;;;;;;33.55;15.32;;;;;;;;;;5087639;27;20044;-72
2023/05/22 01:36:33;;;;;;;30.70;14.65;;;;;;;;;;5112514;27;20023;-72
2023/05/22 01:39:00;;;;;;;35.63;15.00;;;;;;;;;;5102069;27;20085;-72
2023/05/22 01:41:27;;;;;;;34.45;15.80;;;;;;;;;;5089431;28;20035;-72
2023/05/22 01:43:53;;;;;;;33.22;15.38;;;;;;;;;;5095673;27;20047;-72
2023/05/22 01:46:18;;;;;;;35.72;16.13;;;;;;;;;;5088915;27;20027;-72
2023/05/22 01:48:44;;;;;;;35.15;14.82;;;;;;;;;;5091742;28;20512;-72
2023/05/22 01:51:21;;;;;;;31.73;14.93;;;;;;;;;;5106310;27;20044;-72
2023/05/22 01:53:56;;;;;;;39.63;15.55;;;;;;;;;;5110295;27;20512;-72
2023/05/22 01:56:33;;;;;;;39.85;15.48;;;;;;;;;;5098245;27;20232;-72
2023/05/22 01:59:22;;;;;;;29.95;11.63;;;;;;;;;;5095022;27;20043;-72
2023/05/22 02:01:50;;;;;;;39.13;15.10;;;;;;;;;;5085764;27;20135;-72
2023/05/22 02:04:19;;;;;;;38.08;16.60;;;;;;;;;;5089822;27;20031;-72
2023/05/22 02:06:45;;;;;;;39.22;15.60;;;;;;;;;;5103303;28;20027;-71
2023/05/22 02:09:13;;;;;;;37.58;17.35;;;;;;;;;;5102200;27;20047;-72
2023/05/22 02:11:40;;;;;;;38.70;17.02;;;;;;;;;;5093265;27;20036;-72
2023/05/22 02:14:07;;;;;;;44.78;17.40;;;;;;;;;;5092458;27;20036;-72
2023/05/22 02:16:33;;;;;;;36.25;16.40;;;;;;;;;;5095827;27;20035;-72
2023/05/22 02:19:05;;;;;;;39.70;16.85;;;;;;;;;;5104874;27;20054;-72
2023/05/22 02:21:34;;;;;;;32.08;16.00;;;;;;;;;;5091695;27;20428;-72
2023/05/22 02:24:01;;;;;;;41.78;17.40;;;;;;;;;;5105768;27;20039;-72
2023/05/22 02:26:26;;;;;;;39.78;17.35;;;;;;;;;;5102692;27;20382;-72
2023/05/22 02:28:52;;;;;;;44.05;17.63;;;;;;;;;;5103434;28;20117;-72
2023/05/22 02:31:17;;;;;;;39.92;17.83;;;;;;;;;;5101787;28;20030;-72
2023/05/22 02:33:43;;;;;;;40.25;17.98;;;;;;;;;;5087448;28;20016;-72
2023/05/22 02:36:11;;;;;;;39.67;17.50;;;;;;;;;;5092673;28;20039;-72
2023/05/22 02:38:37;;;;;;;39.60;16.77;;;;;;;;;;5102905;27;20080;-72
2023/05/22 02:41:02;;;;;;;36.05;16.52;;;;;;;;;;5095918;27;20036;-72
2023/05/22 02:43:28;;;;;;;44.00;17.42;;;;;;;;;;5100302;27;20036;-72
2023/05/22 02:45:53;;;;;;;42.50;16.40;;;;;;;;;;5103395;28;20035;-72
2023/05/22 02:48:18;;;;;;;38.08;15.70;;;;;;;;;;5105678;27;20110;-72
2023/05/22 02:50:44;;;;;;;39.50;16.20;;;;;;;;;;5106507;27;20070;-72
2023/05/22 02:53:09;;;;;;;44.72;16.27;;;;;;;;;;5086675;28;20036;-72
2023/05/22 02:55:35;;;;;;;39.08;15.55;;;;;;;;;;5100407;27;20864;-72
2023/05/22 02:58:01;;;;;;;38.45;16.55;;;;;;;;;;5100832;28;20027;-72
2023/05/22 03:00:26;;;;;;;45.70;17.95;;;;;;;;;;5097510;27;20063;-72
2023/05/22 03:02:52;;;;;;;41.08;18.52;;;;;;;;;;5092517;27;20032;-72
2023/05/22 03:05:17;;;;;;;40.83;16.40;;;;;;;;;;5103859;27;20051;-72
2023/05/22 03:07:43;;;;;;;41.00;17.50;;;;;;;;;;5098316;27;20439;-72
2023/05/22 03:10:09;;;;;;;39.42;17.98;;;;;;;;;;5094779;28;20032;-72
2023/05/22 03:12:34;;;;;;;38.58;17.40;;;;;;;;;;5108352;28;20028;-72
2023/05/22 03:15:00;;;;;;;38.30;16.17;;;;;;;;;;5104681;28;20064;-72
2023/05/22 03:17:25;;;;;;;35.03;16.75;;;;;;;;;;5105384;27;20036;-72
2023/05/22 03:19:50;;;;;;;41.90;16.42;;;;;;;;;;5095064;28;20043;-72
2023/05/22 03:22:17;;;;;;;38.92;16.35;;;;;;;;;;5105221;28;20027;-72
2023/05/22 03:24:42;;;;;;;41.00;16.15;;;;;;;;;;5097050;28;20039;-72
2023/05/22 03:27:08;;;;;;;38.90;17.90;;;;;;;;;;5097842;28;20036;-72
2023/05/22 03:29:33;;;;;;;35.10;16.50;;;;;;;;;;5099449;27;20039;-72
2023/05/22 03:31:58;;;;;;;41.30;18.70;;;;;;;;;;5094953;27;20129;-72
2023/05/22 03:34:25;;;;;;;46.47;17.63;;;;;;;;;;5097632;27;20046;-72
2023/05/22 03:36:51;;;;;;;45.08;18.55;;;;;;;;;;5093194;28;20397;-72
2023/05/22 03:39:16;;;;;;;45.50;19.20;;;;;;;;;;5087750;28;20587;-72
2023/05/22 03:41:42;;;;;;;47.10;19.38;;;;;;;;;;5092795;28;20035;-72
2023/05/22 03:44:07;;;;;;;45.97;19.92;;;;;;;;;;5093157;27;20035;-72
2023/05/22 03:46:32;;;;;;;46.88;19.05;;;;;;;;;;5103745;28;20035;-72
2023/05/22 03:48:58;;;;;;;44.42;19.13;;;;;;;;;;5102622;28;20032;-72
2023/05/22 03:51:23;;;;;;;42.28;17.92;;;;;;;;;;5099775;28;20647;-72
2023/05/22 03:53:48;;;;;;;41.53;17.85;;;;;;;;;;5099339;27;20035;-72
2023/05/22 03:56:14;;;;;;;55.60;19.50;;;;;;;;;;5103614;27;20027;-72
2023/05/22 03:58:39;;;;;;;40.38;18.80;;;;;;;;;;5099356;27;20525;-72
2023/05/22 04:01:05;;;;;;;49.22;18.98;;;;;;;;;;5100672;27;20127;-72
2023/05/22 04:03:30;;;;;;;46.67;18.23;;;;;;;;;;5104812;28;20019;-71
2023/05/22 04:05:55;;;;;;;46.53;18.90;;;;;;;;;;5104431;27;20515;-72
2023/05/22 04:08:21;;;;;;;46.15;18.58;;;;;;;;;;5100748;27;20032;-72
2023/05/22 04:10:47;;;;;;;48.90;20.05;;;;;;;;;;5099903;27;20042;-72
2023/05/22 04:13:13;;;;;;;55.75;21.00;;;;;;;;;;5104597;27;20575;-72
2023/05/22 04:15:40;;;;;;;52.45;20.70;;;;;;;;;;5104163;28;20083;-72
2023/05/22 04:18:06;;;;;;;45.33;18.30;;;;;;;;;;5099674;27;20049;-72
2023/05/22 04:20:32;;;;;;;49.75;19.80;;;;;;;;;;5103478;27;20060;-72
2023/05/22 04:22:57;;;;;;;48.67;20.63;;;;;;;;;;5101964;27;20036;-72
2023/05/22 04:25:22;;;;;;;55.83;22.00;;;;;;;;;;5106163;27;20043;-72
2023/05/22 04:27:49;;;;;;;50.75;21.02;;;;;;;;;;5108172;27;20421;-71
2023/05/22 04:30:15;;;;;;;56.25;20.88;;;;;;;;;;5097519;27;20528;-72
2023/05/22 04:32:42;;;;;;;48.58;19.38;;;;;;;;;;5108998;27;20039;-72
2023/05/22 04:35:12;;;;;;;63.75;23.50;;;;;;;;;;5106478;27;20038;-72
2023/05/22 04:37:39;;;;;;;55.38;20.80;;;;;;;;;;5101810;28;20091;-72
2023/05/22 04:40:10;;;;;;;65.78;22.73;;;;;;;;;;5108436;27;20026;-72
2023/05/22 04:42:37;;;;;;;56.10;22.73;;;;;;;;;;5104474;28;20012;-72
2023/05/22 04:45:05;;;;;;;52.85;21.98;;;;;;;;;;5104059;27;20087;-72
2023/05/22 04:47:31;;;;;;;57.08;21.70;;;;;;;;;;5106408;28;20428;-72
2023/05/22 04:49:59;;;;;;;60.08;23.65;;;;;;;;;;5106086;27;20032;-72
2023/05/22 04:52:25;;;;;;;56.00;22.70;;;;;;;;;;5100159;28;20032;-72
2023/05/22 04:54:51;;;;;;;54.97;21.42;;;;;;;;;;5102027;28;20020;-72
2023/05/22 04:57:20;;;;;;;55.90;23.13;;;;;;;;;;5097570;28;20082;-72
2023/05/22 04:59:46;;;;;;;58.40;22.20;;;;;;;;;;5105284;27;20036;-72
2023/05/22 05:02:12;;;;;;;57.60;21.85;;;;;;;;;;5099670;27;20120;-72
2023/05/22 05:04:38;;;;;;;55.40;20.98;;;;;;;;;;5103286;27;20039;-72
2023/05/22 05:07:03;;;;;;;60.88;22.52;;;;;;;;;;5094740;27;20056;-72
2023/05/22 05:09:29;;;;;;;63.03;22.55;;;;;;;;;;5088167;28;20088;-72
2023/05/22 05:11:54;;;;;;;52.50;20.38;;;;;;;;;;5107025;27;20062;-72
2023/05/22 05:14:20;;;;;;;52.05;20.48;;;;;;;;;;5106451;27;20032;-72
2023/05/22 05:16:46;;;;;;;53.22;22.42;;;;;;;;;;5105264;27;20126;-72
2023/05/22 05:19:11;;;;;;;48.80;20.52;;;;;;;;;;5109879;27;20196;-72
2023/05/22 05:21:37;;;;;;;50.28;20.20;;;;;;;;;;5098838;28;20061;-72
2023/05/22 05:24:03;;;;;;;55.65;20.88;;;;;;;;;;5102744;27;20044;-72
2023/05/22 05:26:28;;;;;;;51.58;21.70;;;;;;;;;;5093546;27;20086;-72
2023/05/22 05:28:55;;;;;;;57.30;20.88;;;;;;;;;;5089531;27;20078;-72
2023/05/22 05:31:21;;;;;;;61.42;22.48;;;;;;;;;;5095493;27;21397;-72
2023/05/22 05:33:47;;;;;;;56.88;22.17;;;;;;;;;;5096739;27;20020;-72
2023/05/22 05:36:13;;;;;;;61.53;24.02;;;;;;;;;;5096454;27;20167;-72
2023/05/22 05:38:38;;;;;;;59.75;22.48;;;;;;;;;;5095138;27;20107;-72
2023/05/22 05:41:03;;;;;;;57.47;23.42;;;;;;;;;;5089451;27;20027;-72
2023/05/22 05:43:29;;;;;;;60.58;22.17;;;;;;;;;;5100555;27;20032;-72
2023/05/22 05:45:54;;;;;;;65.20;22.00;;;;;;;;;;5102941;27;20121;-72
2023/05/22 05:48:20;;;;;;;60.10;22.00;;;;;;;;;;5102801;27;20024;-72
2023/05/22 05:50:45;;;;;;;58.78;21.77;;;;;;;;;;5095348;27;20051;-72
2023/05/22 05:53:11;;;;;;;58.63;23.33;;;;;;;;;;5099602;27;20480;-72
2023/05/22 05:55:36;;;;;;;61.25;22.60;;;;;;;;;;5102180;27;20031;-72
2023/05/22 05:58:02;;;;;;;61.20;21.85;;;;;;;;;;5103399;27;20031;-72
2023/05/22 06:00:27;;;;;;;61.22;22.55;;;;;;;;;;5106521;27;20031;-72
2023/05/22 06:02:52;;;;;;;51.38;21.83;;;;;;;;;;5109522;27;20031;-72
2023/05/22 06:05:18;;;;;;;57.05;21.05;;;;;;;;;;5089420;27;20456;-72
2023/05/22 06:07:44;;;;;;;47.85;19.27;;;;;;;;;;5095572;27;20035;-72
2023/05/22 06:10:11;;;;;;;58.95;21.50;;;;;;;;;;5097178;27;20032;-72
2023/05/22 06:12:36;;;;;;;53.65;19.50;;;;;;;;;;5097072;27;20023;-72
2023/05/22 06:15:04;;;;;;;57.67;21.33;;;;;;;;;;5093125;27;20028;-72
2023/05/22 06:17:30;;;;;;;51.40;20.50;;;;;;;;;;5093080;27;20484;-72
2023/05/22 06:19:55;;;;;;;61.58;22.50;;;;;;;;;;5098157;27;20551;-72
2023/05/22 06:22:24;;;;;;;52.95;20.35;;;;;;;;;;5099187;27;20035;-72
2023/05/22 06:24:55;;;;;;;46.72;18.45;;;;;;;;;;5098776;27;20114;-72
2023/05/22 06:27:21;;;;;;;59.75;21.88;;;;;;;;;;5092188;27;20113;-72
2023/05/22 06:29:50;;;;;;;49.08;18.85;;;;;;;;;;5091615;27;20036;-72
2023/05/22 06:32:16;;;;;;;55.67;20.48;;;;;;;;;;5093027;27;20036;-72
2023/05/22 06:34:43;;;;;;;55.92;20.75;;;;;;;;;;5094723;27;20093;-72
2023/05/22 06:37:09;;;;;;;52.55;20.35;;;;;;;;;;5089553;27;20053;-72
2023/05/22 06:39:35;;;;;;;59.15;20.23;;;;;;;;;;5089978;27;20081;-72
2023/05/22 06:42:00;;;;;;;47.60;18.83;;;;;;;;;;5103194;27;20043;-72
2023/05/22 06:44:26;;;;;;;53.80;19.60;;;;;;;;;;5096252;27;20480;-72
2023/05/22 06:46:51;;;;;;;53.58;20.83;;;;;;;;;;5105784;27;20035;-72
2023/05/22 06:49:18;;;;;;;45.83;18.33;;;;;;;;;;5091808;27;20019;-72
2023/05/22 06:51:44;;;;;;;52.50;20.85;;;;;;;;;;5093333;27;20867;-72
2023/05/22 06:54:11;;;;;;;43.05;17.23;;;;;;;;;;5087846;27;20032;-72
2023/05/22 06:56:36;;;;;;;51.83;20.05;;;;;;;;;;5089194;27;20032;-72
2023/05/22 06:59:02;;;;;;;49.67;19.10;;;;;;;;;;5096992;27;20046;-72
2023/05/22 07:01:28;;;;;;;53.15;19.65;;;;;;;;;;5091811;27;20040;-72
2023/05/22 07:03:57;;;;;;;47.00;17.58;;;;;;;;;;5101025;28;20485;-72
2023/05/22 07:06:23;;;;;;;52.65;19.13;;;;;;;;;;5088900;28;20153;-72
2023/05/22 07:08:49;;;;;;;51.67;18.98;;;;;;;;;;5096204;27;20068;-72
2023/05/22 07:11:15;;;;;;;53.08;19.13;;;;;;;;;;5097063;28;20027;-72
2023/05/22 07:13:40;;;;;;;59.55;21.77;;;;;;;;;;5103237;27;20032;-72
2023/05/22 07:16:06;;;;;;;56.72;19.98;;;;;;;;;;5103022;27;20031;-72
2023/05/22 07:18:32;;;;;;;50.65;19.77;;;;;;;;;;5094896;28;20098;-72
2023/05/22 07:20:57;;;;;;;61.65;21.13;;;;;;;;;;5102051;27;20036;-72
2023/05/22 07:23:22;;;;;;;49.53;20.77;;;;;;;;;;5098830;27;20040;-72
2023/05/22 07:25:48;;;;;;;61.30;22.35;;;;;;;;;;5103805;27;20048;-72
2023/05/22 07:28:13;;;;;;;58.35;20.95;;;;;;;;;;5093352;28;20023;-72
2023/05/22 07:30:39;;;;;;;49.13;20.73;;;;;;;;;;5097531;27;20446;-72
2023/05/22 07:33:04;;;;;;;51.92;19.33;;;;;;;;;;5099164;27;20077;-72
2023/05/22 07:35:30;;;;;;;54.95;19.95;;;;;;;;;;5092547;27;20031;-71
2023/05/22 07:37:56;;;;;;;52.30;21.63;;;;;;;;;;5094066;27;20040;-72
2023/05/22 07:40:21;;;;;;;57.90;20.50;;;;;;;;;;5104165;27;20032;-72
2023/05/22 07:42:46;;;;;;;47.72;20.10;;;;;;;;;;5108175;27;20027;-72
2023/05/22 07:45:12;;;;;;;48.22;20.00;;;;;;;;;;5103891;27;20040;-71
2023/05/22 07:47:37;;;;;;;52.70;19.33;;;;;;;;;;5103611;27;20098;-71
2023/05/22 07:50:03;;;;;;;54.90;21.25;;;;;;;;;;5107194;27;20054;-72
2023/05/22 07:52:30;;;;;;;50.58;20.98;;;;;;;;;;5097765;27;20044;-72
2023/05/22 07:54:55;;;;;;;50.45;18.92;;;;;;;;;;5101290;27;20094;-72
2023/05/22 07:57:21;;;;;;;56.88;21.92;;;;;;;;;;5105254;27;20152;-72
2023/05/22 07:59:47;;;;;;;49.95;20.27;;;;;;;;;;5099183;27;20044;-72
2023/05/22 08:02:13;;;;;;;54.55;21.15;;;;;;;;;;5096486;27;20044;-72
2023/05/22 08:04:38;;;;;;;48.97;19.77;;;;;;;;;;5099082;27;20082;-72
2023/05/22 08:07:04;;;;;;;51.40;20.95;;;;;;;;;;5104415;27;20020;-72
2023/05/22 08:09:29;;;;;;;50.15;20.70;;;;;;;;;;5099685;27;20493;-71
2023/05/22 08:11:55;;;;;;;44.22;19.02;;;;;;;;;;5097049;27;20094;-72
2023/05/22 08:14:21;;;;;;;48.63;20.40;;;;;;;;;;5104012;27;20099;-72
2023/05/22 08:16:46;;;;;;;53.47;20.95;;;;;;;;;;5095068;27;20564;-72
2023/05/22 08:19:11;;;;;;;51.97;19.80;;;;;;;;;;5097372;27;20034;-72
2023/05/22 08:21:37;;;;;;;52.83;21.17;;;;;;;;;;5104471;27;20072;-72
2023/05/22 08:24:02;;;;;;;49.80;22.85;;;;;;;;;;5096360;27;20032;-72
2023/05/22 08:26:28;;;;;;;53.55;21.27;;;;;;;;;;5094977;27;20039;-72
2023/05/22 08:28:53;;;;;;;45.58;18.40;;;;;;;;;;5113725;27;20036;-72
2023/05/22 08:31:19;;;;;;;59.20;20.98;;;;;;;;;;5107313;27;20023;-72
2023/05/22 08:33:44;;;;;;;53.30;22.02;;;;;;;;;;5100475;27;20016;-71
2023/05/22 08:36:10;;;;;;;51.65;20.42;;;;;;;;;;5094073;27;20032;-71
2023/05/22 08:38:35;;;;;;;50.58;20.23;;;;;;;;;;5105063;27;20028;-72
2023/05/22 08:41:01;;;;;;;47.80;19.58;;;;;;;;;;5097671;27;20084;-72
2023/05/22 08:43:27;;;;;;;51.38;21.45;;;;;;;;;;5101325;27;20036;-72
2023/05/22 08:46:02;;;;;;;49.30;21.15;;;;;;;;;;5115918;27;20080;-72
2023/05/22 08:48:31;;;;;;;52.33;20.13;;;;;;;;;;5112862;27;20044;-72
2023/05/22 08:51:01;;;;;;;49.90;21.27;;;;;;;;;;5099922;27;20470;-72
2023/05/22 08:53:30;;;;;;;50.13;18.50;;;;;;;;;;5097820;27;20092;-72
2023/05/22 08:55:55;;;;;;;55.58;21.25;;;;;;;;;;5101272;27;20031;-72
2023/05/22 08:58:21;;;;;;;55.38;23.38;;;;;;;;;;5099010;27;20052;-72
2023/05/22 09:00:46;;;;;;;48.50;20.90;;;;;;;;;;5098362;27;20484;-72
2023/05/22 09:03:13;;;;;;;50.33;20.75;;;;;;;;;;5096552;27;20039;-71
2023/05/22 09:05:40;;;;;;;46.85;20.35;;;;;;;;;;5099148;27;20131;-71
2023/05/22 09:08:09;;;;;;;38.40;17.95;;;;;;;;;;5091731;27;20118;-72
2023/05/22 09:10:35;;;;;;;42.85;20.63;;;;;;;;;;5086902;27;20228;-71
2023/05/22 09:13:06;;;;;;;44.67;20.45;;;;;;;;;;5096883;27;20114;-72
2023/05/22 09:15:32;;;;;;;51.42;21.80;;;;;;;;;;5093585;27;20047;-72
2023/05/22 09:17:59;;;;;;;51.75;20.77;;;;;;;;;;5099488;27;20085;-72
2023/05/22 09:20:24;;;;;;;45.25;18.95;;;;;;;;;;5093558;27;20069;-71
2023/05/22 09:22:50;;;;;;;48.53;20.40;;;;;;;;;;5089190;27;20148;-71
2023/05/22 09:25:19;;;;;;;49.30;20.75;;;;;;;;;;5096308;27;20032;-72
2023/05/22 09:27:46;;;;;;;45.78;20.25;;;;;;;;;;5099033;27;20820;-71
2023/05/22 09:30:15;;;;;;;42.03;18.95;;;;;;;;;;5096130;27;20611;-72
2023/05/22 09:32:41;;;;;;;54.78;21.80;;;;;;;;;;5092720;27;20043;-71
2023/05/22 09:35:07;;;;;;;47.65;20.75;;;;;;;;;;5093820;27;20036;-72
2023/05/22 09:37:36;;;;;;;42.92;19.90;;;;;;;;;;5097165;27;20422;-72
2023/05/22 09:40:12;;;;;;;50.85;21.92;;;;;;;;;;5104816;27;20032;-72
2023/05/22 09:42:37;;;;;;;43.58;19.20;;;;;;;;;;5092134;28;20382;-72
2023/05/22 09:45:07;;;;;;;50.65;22.08;;;;;;;;;;5100113;27;20046;-72
2023/05/22 09:47:33;;;;;;;51.42;20.77;;;;;;;;;;5093795;27;20044;-71
2023/05/22 09:50:00;;;;;;;40.90;17.10;;;;;;;;;;5101483;27;20509;-71
2023/05/22 09:52:27;;;;;;;52.47;21.92;;;;;;;;;;5092151;27;20055;-71
2023/05/22 09:54:55;;;;;;;54.50;21.88;;;;;;;;;;5096783;27;20607;-71
2023/05/22 09:57:25;;;;;;;55.53;22.42;;;;;;;;;;5097724;27;20467;-71
2023/05/22 09:59:53;;;;;;;52.13;22.10;;;;;;;;;;5098173;27;20040;-71
2023/05/22 10:02:22;;;;;;;55.50;21.23;;;;;;;;;;5095621;27;20370;-71
2023/05/22 10:04:49;;;;;;;51.90;22.60;;;;;;;;;;5105354;27;20437;-72
2023/05/22 10:07:17;;;;;;;58.92;21.77;;;;;;;;;;5102783;27;20099;-72
2023/05/22 10:09:47;;;;;;;54.17;22.35;;;;;;;;;;5099419;27;20413;-71
2023/05/22 10:12:15;;;;;;;53.35;21.50;;;;;;;;;;5093726;27;20066;-72
2023/05/22 10:14:41;;;;;;;53.33;22.60;;;;;;;;;;5101544;27;20119;-72
2023/05/22 10:17:07;;;;;;;53.90;22.27;;;;;;;;;;5094251;27;20055;-72
2023/05/22 10:19:34;;;;;;;62.40;22.92;;;;;;;;;;5103110;27;20134;-72
2023/05/22 10:22:00;;;;;;;51.60;21.10;;;;;;;;;;5098029;27;20465;-71
2023/05/22 10:24:26;;;;;;;58.97;20.73;;;;;;;;;;5095967;27;20039;-72
2023/05/22 10:26:53;;;;;;;54.85;22.20;;;;;;;;;;5090877;27;20117;-72
2023/05/22 10:29:24;;;;;;;53.25;22.75;;;;;;;;;;5090414;27;20031;-72
2023/05/22 10:32:02;;;;;;;50.63;23.13;;;;;;;;;;5092666;27;20040;-71
2023/05/22 10:34:37;;;;;;;54.30;23.08;;;;;;;;;;5093434;27;20054;-72
2023/05/22 10:37:20;;;;;;;48.03;21.17;;;;;;;;;;5088906;27;20027;-72
2023/05/22 10:40:08;;;;;;;43.42;19.20;;;;;;;;;;5094946;28;20651;-72
2023/05/22 10:42:33;;;;;;;54.78;23.10;;;;;;;;;;5091125;27;20044;-71
2023/05/22 10:45:05;;;;;;;54.80;22.73;;;;;;;;;;5090407;27;20038;-71
2023/05/22 10:47:32;;;;;;;50.65;21.73;;;;;;;;;;5089972;28;20091;-72
2023/05/22 10:50:08;;;;;;;57.05;24.98;;;;;;;;;;5096644;27;20122;-71
2023/05/22 10:52:37;;;;;;;60.45;27.17;;;;;;;;;;5090175;27;20050;-72
2023/05/22 10:55:08;;;;;;;48.42;22.00;;;;;;;;;;5095983;27;20435;-72
2023/05/22 10:57:35;;;;;;;51.85;22.23;;;;;;;;;;5093010;27;20114;-71
2023/05/22 11:00:09;;;;;;;51.47;23.20;;;;;;;;;;5092075;28;20044;-72
2023/05/22 11:02:42;;;;;;;53.97;22.90;;;;;;;;;;5089762;27;20135;-71
2023/05/22 11:05:20;;;;;;;;;;;;;;;;;;5089968;27;20040;-72
2023/05/22 11:07:46;;;;;;;45.88;19.23;;;;;;;;;;5097899;27;19929;-72
2023/05/22 11:10:11;;;;;;;48.92;21.90;;;;;;;;;;5095678;27;20049;-72
2023/05/22 11:12:37;;;;;;;48.35;21.08;;;;;;;;;;5089016;27;20024;-72
2023/05/22 11:15:07;;;;;;;47.15;21.23;;;;;;;;;;5097175;27;20146;-72
2023/05/22 11:17:40;;;;;;;44.78;20.80;;;;;;;;;;5097378;27;20039;-72
2023/05/22 11:20:16;;;;;;;47.63;22.65;;;;;;;;;;5097440;27;20027;-72
2023/05/22 11:22:43;;;;;;;52.50;22.70;;;;;;;;;;5093176;28;20078;-72
2023/05/22 11:25:19;;;;;;;48.33;21.60;;;;;;;;;;5096027;28;20596;-72
2023/05/22 11:27:46;;;;;;;46.30;21.00;;;;;;;;;;5101325;28;20019;-71
2023/05/22 11:30:12;;;;;;;55.92;22.95;;;;;;;;;;5105475;27;20066;-71
2023/05/22 11:32:39;;;;;;;41.95;19.42;;;;;;;;;;5100135;27;20031;-72
2023/05/22 11:35:06;;;;;;;48.25;19.98;;;;;;;;;;5097426;27;20116;-72
2023/05/22 11:37:32;;;;;;;52.05;21.23;;;;;;;;;;5099172;27;20051;-72
2023/05/22 11:40:03;;;;;;;50.58;20.10;;;;;;;;;;5095399;28;20453;-72
2023/05/22 11:42:28;;;;;;;43.58;20.42;;;;;;;;;;5096528;28;20142;-72
2023/05/22 11:44:55;;;;;;;43.78;18.80;;;;;;;;;;5091462;28;20040;-72
2023/05/22 11:47:20;;;;;;;35.70;18.58;;;;;;;;;;5096210;28;20226;-72
2023/05/22 11:49:46;;;;;;;41.45;19.30;;;;;;;;;;5092515;27;20513;-72
2023/05/22 11:52:11;;;;;;;45.25;19.10;;;;;;;;;;5097752;27;20519;-72
2023/05/22 11:54:37;;;;;;;44.35;20.63;;;;;;;;;;5095809;28;20030;-71
2023/05/22 11:57:04;;;;;;;39.08;19.98;;;;;;;;;;5093559;28;20085;-72
2023/05/22 11:59:29;;;;;;;43.70;18.65;;;;;;;;;;5088626;27;20044;-72
2023/05/22 12:01:55;;;;;;;51.65;19.02;;;;;;;;;;5090554;28;20040;-72
2023/05/22 12:04:21;;;;;;;47.65;21.80;;;;;;;;;;5085557;28;20032;-72
2023/05/22 12:06:47;;;;;;;39.22;18.27;;;;;;;;;;5087553;28;20028;-72
2023/05/22 12:09:12;;;;;;;45.95;20.08;;;;;;;;;;5096907;28;20038;-71
2023/05/22 12:11:38;;;;;;;44.55;19.85;;;;;;;;;;5092865;28;20039;-72
2023/05/22 12:14:03;;;;;;;41.08;18.08;;;;;;;;;;5091866;27;20122;-71
2023/05/22 12:16:35;;;;;;;50.67;20.65;;;;;;;;;;5096432;28;20035;-71
2023/05/22 12:19:08;;;;;;;42.80;20.15;;;;;;;;;;5093544;27;20057;-71
2023/05/22 12:21:35;;;;;;;38.10;19.20;;;;;;;;;;5102491;27;20044;-71
2023/05/22 12:24:04;;;;;;;37.55;18.08;;;;;;;;;;5096183;27;20024;-71
2023/05/22 12:26:31;;;;;;;43.38;20.05;;;;;;;;;;5096617;27;20028;-71
2023/05/22 12:28:57;;;;;;;42.17;18.70;;;;;;;;;;5096147;27;20082;-71
2023/05/22 12:31:23;;;;;;;37.25;17.30;;;;;;;;;;5095254;27;20044;-72
2023/05/22 12:33:56;;;;;;;39.38;18.60;;;;;;;;;;5100601;27;20023;-71
2023/05/22 12:36:42;;;;;;;34.55;15.80;;;;;;;;;;5096701;27;20032;-72
2023/05/22 12:39:16;;;;;;;33.25;16.55;;;;;;;;;;5113520;27;20505;-72
2023/05/22 12:41:42;;;;;;;35.63;16.23;;;;;;;;;;5101442;27;20126;-72
2023/05/22 12:44:08;;;;;;;39.13;18.25;;;;;;;;;;5089975;27;20036;-72
2023/05/22 12:46:33;;;;;;;42.78;17.92;;;;;;;;;;5097394;27;20092;-72
2023/05/22 12:49:00;;;;;;;37.97;16.25;;;;;;;;;;5099327;27;20016;-71
2023/05/22 12:51:30;;;;;;;37.67;16.88;;;;;;;;;;5100565;27;21233;-72
2023/05/22 12:53:58;;;;;;;34.47;17.38;;;;;;;;;;5108083;27;20420;-72
2023/05/22 12:56:24;;;;;;;39.35;16.63;;;;;;;;;;5102203;27;20070;-72
2023/05/22 12:58:50;;;;;;;35.38;15.73;;;;;;;;;;5102312;27;20089;-72
2023/05/22 13:01:15;;;;;;;38.97;16.83;;;;;;;;;;5092384;27;20082;-72
2023/05/22 13:03:41;;;;;;;35.03;16.77;;;;;;;;;;5096325;27;20751;-72
2023/05/22 13:06:06;;;;;;;40.97;16.00;;;;;;;;;;5096032;27;20454;-72
2023/05/22 13:08:31;;;;;;;37.92;16.02;;;;;;;;;;5100762;27;20040;-72
2023/05/22 13:10:57;;;;;;;37.78;15.98;;;;;;;;;;5098959;27;20046;-72
2023/05/22 13:13:22;;;;;;;34.03;16.20;;;;;;;;;;5096300;27;20059;-72
2023/05/22 13:15:48;;;;;;;42.35;16.58;;;;;;;;;;5087569;27;20024;-72
2023/05/22 13:18:13;;;;;;;35.90;15.43;;;;;;;;;;5088543;28;20047;-72
2023/05/22 13:20:39;;;;;;;33.88;17.55;;;;;;;;;;5090495;27;20050;-72
2023/05/22 13:23:05;;;;;;;38.30;17.48;;;;;;;;;;5093358;27;20077;-72
2023/05/22 13:25:30;;;;;;;35.58;16.02;;;;;;;;;;5094874;27;20040;-72
2023/05/22 13:27:58;;;;;;;32.47;16.05;;;;;;;;;;5096891;27;20024;-72
2023/05/22 13:30:23;;;;;;;33.10;15.35;;;;;;;;;;5089851;27;20071;-72
2023/05/22 13:32:49;;;;;;;35.20;16.50;;;;;;;;;;5097523;27;20082;-72
2023/05/22 13:35:14;;;;;;;35.67;15.52;;;;;;;;;;5097304;27;20043;-72
2023/05/22 13:37:39;;;;;;;36.83;16.63;;;;;;;;;;5085899;27;20036;-72
2023/05/22 13:40:06;;;;;;;38.50;17.30;;;;;;;;;;5088553;28;20038;-71
2023/05/22 13:42:31;;;;;;;43.70;18.50;;;;;;;;;;5094888;27;20051;-72
2023/05/22 13:44:57;;;;;;;39.45;18.85;;;;;;;;;;5096135;27;20515;-72
2023/05/22 13:47:22;;;;;;;41.42;18.40;;;;;;;;;;5101305;27;20142;-72
2023/05/22 13:49:48;;;;;;;41.55;18.10;;;;;;;;;;5092918;27;20085;-72
2023/05/22 13:52:13;;;;;;;40.60;17.58;;;;;;;;;;5101423;27;20036;-72
2023/05/22 13:54:39;;;;;;;40.38;17.98;;;;;;;;;;5107692;27;20077;-72
2023/05/22 13:57:05;;;;;;;38.05;17.05;;;;;;;;;;5103905;27;20068;-72
2023/05/22 13:59:30;;;;;;;35.33;17.13;;;;;;;;;;5091661;27;20047;-72
2023/05/22 14:01:55;;;;;;;39.13;17.13;;;;;;;;;;5092438;27;20586;-72
2023/05/22 14:04:21;;;;;;;36.47;17.02;;;;;;;;;;5092348;27;20034;-72
2023/05/22 14:06:46;;;;;;;36.63;16.42;;;;;;;;;;5093562;27;20104;-72
2023/05/22 14:09:12;;;;;;;39.92;17.27;;;;;;;;;;5094441;27;20046;-72
2023/05/22 14:11:37;;;;;;;41.05;16.08;;;;;;;;;;5095464;27;20040;-72
2023/05/22 14:14:02;;;;;;;39.53;17.52;;;;;;;;;;5107430;27;20520;-72
2023/05/22 14:16:28;;;;;;;35.10;15.95;;;;;;;;;;5103574;27;20035;-72
2023/05/22 14:18:53;;;;;;;34.05;15.75;;;;;;;;;;5094641;27;20060;-72